sensor_id;sensor_type;location;lat;lon;timestamp;temperature;humidity
9668;DHT22;4872;48.316;10.650;2024-02-26T05:06:40;4.40;95.70
9668;DHT22;4872;48.316;10.650;2024-02-26T05:09:06;4.40;95.90
9668;DHT22;4872;48.316;10.650;2024-02-26T05:11:33;4.40;96.00
9668;DHT22;4872;48.316;10.650;2024-02-26T05:14:00;4.50;96.20
9668;DHT22;4872;48.316;10.650;2024-02-26T05:16:27;4.50;95.90
9668;DHT22;4872;48.316;10.650;2024-02-26T05:18:55;4.40;95.90
9668;DHT22;4872;48.316;10.650;2024-02-26T05:21:22;4.50;96.20
9668;DHT22;4872;48.316;10.650;2024-02-26T05:23:50;4.50;96.10
9668;DHT22;4872;48.316;10.650;2024-02-26T05:26:20;4.50;95.90
9668;DHT22;4872;48.316;10.650;2024-02-26T05:28:47;4.50;96.20
9668;DHT22;4872;48.316;10.650;2024-02-26T05:31:15;4.50;96.20
9668;DHT22;4872;48.316;10.650;2024-02-26T05:33:42;4.30;95.70
9668;DHT22;4872;48.316;10.650;2024-02-26T05:36:08;4.20;96.30
9668;DHT22;4872;48.316;10.650;2024-02-26T05:38:35;4.20;96.30
9668;DHT22;4872;48.316;10.650;2024-02-26T05:41:03;4.30;96.40
9668;DHT22;4872;48.316;10.650;2024-02-26T05:43:31;4.30;96.50
9668;DHT22;4872;48.316;10.650;2024-02-26T05:45:58;4.30;96.40
9668;DHT22;4872;48.316;10.650;2024-02-26T05:48:24;4.40;96.40
9668;DHT22;4872;48.316;10.650;2024-02-26T05:50:51;4.40;96.00
9668;DHT22;4872;48.316;10.650;2024-02-26T05:53:18;4.30;96.30
9668;DHT22;4872;48.316;10.650;2024-02-26T05:55:45;4.30;96.20
9668;DHT22;4872;48.316;10.650;2024-02-26T05:58:13;4.30;96.20
9668;DHT22;4872;48.316;10.650;2024-02-26T06:00:40;4.30;96.40
9668;DHT22;4872;48.316;10.650;2024-02-26T06:03:07;4.30;96.00
9668;DHT22;4872;48.316;10.650;2024-02-26T06:05:33;4.20;96.40
9668;DHT22;4872;48.316;10.650;2024-02-26T06:08:00;4.20;96.20
9668;DHT22;4872;48.316;10.650;2024-02-26T06:10:28;4.30;96.10
9668;DHT22;4872;48.316;10.650;2024-02-26T06:12:55;4.20;96.60
9668;DHT22;4872;48.316;10.650;2024-02-26T06:15:23;4.20;96.60
9668;DHT22;4872;48.316;10.650;2024-02-26T06:17:50;4.30;96.40
9668;DHT22;4872;48.316;10.650;2024-02-26T06:20:17;4.30;96.40
9668;DHT22;4872;48.316;10.650;2024-02-26T06:22:43;4.30;96.70
9668;DHT22;4872;48.316;10.650;2024-02-26T06:25:10;4.20;96.70
9668;DHT22;4872;48.316;10.650;2024-02-26T06:27:37;4.20;96.90
9668;DHT22;4872;48.316;10.650;2024-02-26T06:30:05;4.20;97.20
9668;DHT22;4872;48.316;10.650;2024-02-26T06:32:33;4.20;97.50
9668;DHT22;4872;48.316;10.650;2024-02-26T06:35:00;4.20;97.60
9668;DHT22;4872;48.316;10.650;2024-02-26T06:37:26;4.00;97.80
9668;DHT22;4872;48.316;10.650;2024-02-26T06:39:53;3.90;97.60
9668;DHT22;4872;48.316;10.650;2024-02-26T06:42:20;4.00;96.60
9668;DHT22;4872;48.316;10.650;2024-02-26T06:44:46;3.90;97.70
9668;DHT22;4872;48.316;10.650;2024-02-26T06:47:13;3.80;98.10
9668;DHT22;4872;48.316;10.650;2024-02-26T06:49:41;3.90;98.50
9668;DHT22;4872;48.316;10.650;2024-02-26T06:52:09;4.00;98.10
9668;DHT22;4872;48.316;10.650;2024-02-26T06:54:35;4.00;97.80
9668;DHT22;4872;48.316;10.650;2024-02-26T06:57:03;4.00;97.70
9668;DHT22;4872;48.316;10.650;2024-02-26T06:59:29;4.00;97.80
9668;DHT22;4872;48.316;10.650;2024-02-26T07:01:56;4.10;98.10
9668;DHT22;4872;48.316;10.650;2024-02-26T07:04:23;4.20;97.70
9668;DHT22;4872;48.316;10.650;2024-02-26T07:06:51;4.30;97.40
9668;DHT22;4872;48.316;10.650;2024-02-26T07:09:18;4.30;97.60
9668;DHT22;4872;48.316;10.650;2024-02-26T07:11:44;4.30;97.70
9668;DHT22;4872;48.316;10.650;2024-02-26T07:14:25;4.40;97.90
9668;DHT22;4872;48.316;10.650;2024-02-26T07:17:00;4.60;97.60
9668;DHT22;4872;48.316;10.650;2024-02-26T07:19:27;4.70;97.30
9668;DHT22;4872;48.316;10.650;2024-02-26T07:21:56;4.70;96.70
9668;DHT22;4872;48.316;10.650;2024-02-26T07:24:22;4.80;96.90
9668;DHT22;4872;48.316;10.650;2024-02-26T07:26:49;4.90;96.70
9668;DHT22;4872;48.316;10.650;2024-02-26T07:29:16;5.00;96.60
9668;DHT22;4872;48.316;10.650;2024-02-26T07:31:42;5.20;96.70
9668;DHT22;4872;48.316;10.650;2024-02-26T07:34:09;5.20;96.50
9668;DHT22;4872;48.316;10.650;2024-02-26T07:36:36;5.20;96.00
9668;DHT22;4872;48.316;10.650;2024-02-26T07:39:04;5.30;96.20
9668;DHT22;4872;48.316;10.650;2024-02-26T07:41:31;5.40;95.60
9668;DHT22;4872;48.316;10.650;2024-02-26T07:43:58;5.50;95.60
9668;DHT22;4872;48.316;10.650;2024-02-26T07:46:25;5.70;95.40
9668;DHT22;4872;48.316;10.650;2024-02-26T07:48:52;5.90;95.70
9668;DHT22;4872;48.316;10.650;2024-02-26T07:51:18;6.00;95.90
9668;DHT22;4872;48.316;10.650;2024-02-26T07:53:45;6.00;96.00
9668;DHT22;4872;48.316;10.650;2024-02-26T07:56:13;6.20;96.10
9668;DHT22;4872;48.316;10.650;2024-02-26T07:58:40;6.40;96.00
9668;DHT22;4872;48.316;10.650;2024-02-26T08:01:07;6.50;95.70
9668;DHT22;4872;48.316;10.650;2024-02-26T08:03:34;6.60;95.60
9668;DHT22;4872;48.316;10.650;2024-02-26T08:06:04;6.70;95.40
9668;DHT22;4872;48.316;10.650;2024-02-26T08:08:31;6.90;94.90
9668;DHT22;4872;48.316;10.650;2024-02-26T08:10:57;7.00;94.50
9668;DHT22;4872;48.316;10.650;2024-02-26T08:13:26;6.90;94.60
9668;DHT22;4872;48.316;10.650;2024-02-26T08:15:53;6.80;94.60
9668;DHT22;4872;48.316;10.650;2024-02-26T08:18:20;6.80;94.00
9668;DHT22;4872;48.316;10.650;2024-02-26T08:20:47;6.60;94.00
9668;DHT22;4872;48.316;10.650;2024-02-26T08:23:14;6.50;94.60
9668;DHT22;4872;48.316;10.650;2024-02-26T08:25:41;6.60;94.50
9668;DHT22;4872;48.316;10.650;2024-02-26T08:28:08;6.60;94.20
9668;DHT22;4872;48.316;10.650;2024-02-26T08:30:38;6.50;94.90
9668;DHT22;4872;48.316;10.650;2024-02-26T08:33:04;6.50;95.10
9668;DHT22;4872;48.316;10.650;2024-02-26T08:35:31;6.60;94.70
9668;DHT22;4872;48.316;10.650;2024-02-26T08:37:59;6.60;94.60
9668;DHT22;4872;48.316;10.650;2024-02-26T08:40:25;6.70;94.80
9668;DHT22;4872;48.316;10.650;2024-02-26T08:42:52;7.00;94.90
9668;DHT22;4872;48.316;10.650;2024-02-26T08:45:19;7.10;94.60
9668;DHT22;4872;48.316;10.650;2024-02-26T08:47:47;7.30;94.70
9668;DHT22;4872;48.316;10.650;2024-02-26T08:50:14;7.50;94.60
9668;DHT22;4872;48.316;10.650;2024-02-26T08:52:41;7.70;94.40
9668;DHT22;4872;48.316;10.650;2024-02-26T08:55:08;7.90;93.90
9668;DHT22;4872;48.316;10.650;2024-02-26T08:57:35;8.00;93.60
9668;DHT22;4872;48.316;10.650;2024-02-26T09:00:02;8.10;93.50
9668;DHT22;4872;48.316;10.650;2024-02-26T09:02:28;8.10;93.20
9668;DHT22;4872;48.316;10.650;2024-02-26T09:04:57;8.10;92.90
9668;DHT22;4872;48.316;10.650;2024-02-26T09:07:23;8.00;92.80
9668;DHT22;4872;48.316;10.650;2024-02-26T09:09:50;7.70;92.70
9668;DHT22;4872;48.316;10.650;2024-02-26T09:12:17;7.90;93.20
9668;DHT22;4872;48.316;10.650;2024-02-26T09:14:45;8.00;93.30
9668;DHT22;4872;48.316;10.650;2024-02-26T09:17:11;8.00;93.20
9668;DHT22;4872;48.316;10.650;2024-02-26T09:19:38;7.90;93.40
9668;DHT22;4872;48.316;10.650;2024-02-26T09:22:06;8.10;93.30
9668;DHT22;4872;48.316;10.650;2024-02-26T09:24:33;8.10;93.00
9668;DHT22;4872;48.316;10.650;2024-02-26T09:27:00;8.60;92.90
9668;DHT22;4872;48.316;10.650;2024-02-26T09:29:27;8.50;92.40
9668;DHT22;4872;48.316;10.650;2024-02-26T09:31:54;8.90;92.60
9668;DHT22;4872;48.316;10.650;2024-02-26T09:34:21;9.10;92.00
9668;DHT22;4872;48.316;10.650;2024-02-26T09:36:48;9.10;91.40
9668;DHT22;4872;48.316;10.650;2024-02-26T09:39:16;9.20;91.70
9668;DHT22;4872;48.316;10.650;2024-02-26T09:41:47;9.30;91.50
9668;DHT22;4872;48.316;10.650;2024-02-26T09:44:18;9.60;91.50
9668;DHT22;4872;48.316;10.650;2024-02-26T09:46:47;9.70;91.40
9668;DHT22;4872;48.316;10.650;2024-02-26T09:49:15;9.60;91.30
9668;DHT22;4872;48.316;10.650;2024-02-26T09:51:42;9.80;90.60
9668;DHT22;4872;48.316;10.650;2024-02-26T09:54:09;10.00;90.10
9668;DHT22;4872;48.316;10.650;2024-02-26T09:56:39;10.00;89.20
9668;DHT22;4872;48.316;10.650;2024-02-26T09:59:17;10.10;89.00
9668;DHT22;4872;48.316;10.650;2024-02-26T10:01:44;10.10;87.90
9668;DHT22;4872;48.316;10.650;2024-02-26T10:04:12;10.00;88.20
9668;DHT22;4872;48.316;10.650;2024-02-26T10:06:40;9.70;88.20
9668;DHT22;4872;48.316;10.650;2024-02-26T10:09:10;9.50;89.10
9668;DHT22;4872;48.316;10.650;2024-02-26T10:11:40;9.70;90.00
9668;DHT22;4872;48.316;10.650;2024-02-26T10:14:08;9.90;89.90
9668;DHT22;4872;48.316;10.650;2024-02-26T10:16:35;9.80;89.10
9668;DHT22;4872;48.316;10.650;2024-02-26T10:19:02;9.60;89.60
9668;DHT22;4872;48.316;10.650;2024-02-26T10:21:29;9.70;90.00
9668;DHT22;4872;48.316;10.650;2024-02-26T10:23:56;9.80;89.60
9668;DHT22;4872;48.316;10.650;2024-02-26T10:26:22;9.90;89.50
9668;DHT22;4872;48.316;10.650;2024-02-26T10:28:51;10.00;87.80
9668;DHT22;4872;48.316;10.650;2024-02-26T10:31:17;10.10;88.40
9668;DHT22;4872;48.316;10.650;2024-02-26T10:33:45;9.70;88.30
9668;DHT22;4872;48.316;10.650;2024-02-26T10:36:12;9.80;88.80
9668;DHT22;4872;48.316;10.650;2024-02-26T10:38:39;9.70;89.00
9668;DHT22;4872;48.316;10.650;2024-02-26T10:41:06;9.60;88.70
9668;DHT22;4872;48.316;10.650;2024-02-26T10:43:34;9.40;89.20
9668;DHT22;4872;48.316;10.650;2024-02-26T10:46:02;9.20;89.40
9668;DHT22;4872;48.316;10.650;2024-02-26T10:48:29;9.20;90.10
9668;DHT22;4872;48.316;10.650;2024-02-26T10:50:56;9.40;90.40
9668;DHT22;4872;48.316;10.650;2024-02-26T10:53:25;9.80;90.30
9668;DHT22;4872;48.316;10.650;2024-02-26T10:55:57;9.80;88.40
9668;DHT22;4872;48.316;10.650;2024-02-26T10:58:26;10.10;87.00
9668;DHT22;4872;48.316;10.650;2024-02-26T11:00:53;10.50;87.40
9668;DHT22;4872;48.316;10.650;2024-02-26T11:03:24;11.20;86.20
9668;DHT22;4872;48.316;10.650;2024-02-26T11:05:52;11.60;85.90
9668;DHT22;4872;48.316;10.650;2024-02-26T11:08:19;12.00;84.60
9668;DHT22;4872;48.316;10.650;2024-02-26T11:10:47;13.10;85.00
9668;DHT22;4872;48.316;10.650;2024-02-26T11:13:15;14.00;81.90
9668;DHT22;4872;48.316;10.650;2024-02-26T11:15:45;14.80;79.70
9668;DHT22;4872;48.316;10.650;2024-02-26T11:18:14;15.20;78.40
9668;DHT22;4872;48.316;10.650;2024-02-26T11:20:43;15.80;75.90
9668;DHT22;4872;48.316;10.650;2024-02-26T11:23:10;16.60;75.90
9668;DHT22;4872;48.316;10.650;2024-02-26T11:25:37;16.80;73.90
9668;DHT22;4872;48.316;10.650;2024-02-26T11:28:08;17.60;73.10
9668;DHT22;4872;48.316;10.650;2024-02-26T11:30:42;17.60;69.20
9668;DHT22;4872;48.316;10.650;2024-02-26T11:33:10;17.90;69.40
9668;DHT22;4872;48.316;10.650;2024-02-26T11:35:38;17.60;68.30
9668;DHT22;4872;48.316;10.650;2024-02-26T11:38:06;17.80;68.00
9668;DHT22;4872;48.316;10.650;2024-02-26T11:40:37;17.90;68.60
9668;DHT22;4872;48.316;10.650;2024-02-26T11:43:05;18.50;68.30
9668;DHT22;4872;48.316;10.650;2024-02-26T11:45:50;19.20;66.50
9668;DHT22;4872;48.316;10.650;2024-02-26T11:48:22;20.20;65.10
9668;DHT22;4872;48.316;10.650;2024-02-26T11:50:50;20.20;62.20
9668;DHT22;4872;48.316;10.650;2024-02-26T11:53:23;20.50;62.00
9668;DHT22;4872;48.316;10.650;2024-02-26T11:56:22;21.30;62.10
9668;DHT22;4872;48.316;10.650;2024-02-26T11:58:56;21.10;60.30
9668;DHT22;4872;48.316;10.650;2024-02-26T12:01:42;20.60;59.20
9668;DHT22;4872;48.316;10.650;2024-02-26T12:04:12;19.30;58.90
9668;DHT22;4872;48.316;10.650;2024-02-26T12:06:46;18.80;59.60
9668;DHT22;4872;48.316;10.650;2024-02-26T12:09:30;18.30;60.40
9668;DHT22;4872;48.316;10.650;2024-02-26T12:11:57;17.90;61.60
9668;DHT22;4872;48.316;10.650;2024-02-26T12:14:25;17.60;60.80
9668;DHT22;4872;48.316;10.650;2024-02-26T12:16:53;17.10;60.60
9668;DHT22;4872;48.316;10.650;2024-02-26T12:19:21;16.70;61.50
9668;DHT22;4872;48.316;10.650;2024-02-26T12:21:51;16.20;62.10
9668;DHT22;4872;48.316;10.650;2024-02-26T12:24:20;15.70;62.50
9668;DHT22;4872;48.316;10.650;2024-02-26T12:26:47;15.10;62.50
9668;DHT22;4872;48.316;10.650;2024-02-26T12:29:14;14.60;64.30
9668;DHT22;4872;48.316;10.650;2024-02-26T12:31:41;14.30;64.50
9668;DHT22;4872;48.316;10.650;2024-02-26T12:34:09;14.00;65.40
9668;DHT22;4872;48.316;10.650;2024-02-26T12:36:35;13.80;66.60
9668;DHT22;4872;48.316;10.650;2024-02-26T12:39:03;13.60;66.90
9668;DHT22;4872;48.316;10.650;2024-02-26T12:41:33;13.40;66.90
9668;DHT22;4872;48.316;10.650;2024-02-26T12:44:01;13.30;67.30
9668;DHT22;4872;48.316;10.650;2024-02-26T12:46:27;13.30;66.90
9668;DHT22;4872;48.316;10.650;2024-02-26T12:48:56;13.20;67.90
9668;DHT22;4872;48.316;10.650;2024-02-26T12:51:24;13.10;68.40
9668;DHT22;4872;48.316;10.650;2024-02-26T12:53:51;12.70;68.40
9668;DHT22;4872;48.316;10.650;2024-02-26T12:56:19;12.70;68.50
9668;DHT22;4872;48.316;10.650;2024-02-26T12:58:47;12.60;68.70
9668;DHT22;4872;48.316;10.650;2024-02-26T13:01:16;12.50;69.30
9668;DHT22;4872;48.316;10.650;2024-02-26T13:03:44;12.30;70.00
9668;DHT22;4872;48.316;10.650;2024-02-26T13:06:11;12.10;70.40
9668;DHT22;4872;48.316;10.650;2024-02-26T13:08:38;12.10;71.70
9668;DHT22;4872;48.316;10.650;2024-02-26T13:11:06;12.10;72.00
9668;DHT22;4872;48.316;10.650;2024-02-26T13:13:32;12.10;72.00
9668;DHT22;4872;48.316;10.650;2024-02-26T13:16:05;12.10;72.10
9668;DHT22;4872;48.316;10.650;2024-02-26T13:18:33;12.20;72.80
9668;DHT22;4872;48.316;10.650;2024-02-26T13:21:09;12.10;72.50
9668;DHT22;4872;48.316;10.650;2024-02-26T13:23:36;12.00;73.30
9668;DHT22;4872;48.316;10.650;2024-02-26T13:26:03;12.10;73.40
9668;DHT22;4872;48.316;10.650;2024-02-26T13:28:30;12.10;73.10
9668;DHT22;4872;48.316;10.650;2024-02-26T13:30:57;12.10;73.70
9668;DHT22;4872;48.316;10.650;2024-02-26T13:33:28;12.00;74.00
9668;DHT22;4872;48.316;10.650;2024-02-26T13:35:55;11.90;73.50
9668;DHT22;4872;48.316;10.650;2024-02-26T13:38:22;11.80;73.70
9668;DHT22;4872;48.316;10.650;2024-02-26T13:40:50;11.70;73.80
9668;DHT22;4872;48.316;10.650;2024-02-26T13:43:17;11.50;74.30
9668;DHT22;4872;48.316;10.650;2024-02-26T13:45:43;11.40;74.90
9668;DHT22;4872;48.316;10.650;2024-02-26T13:48:11;11.40;75.20
9668;DHT22;4872;48.316;10.650;2024-02-26T13:50:41;11.40;75.30
9668;DHT22;4872;48.316;10.650;2024-02-26T13:53:11;11.40;75.40
9668;DHT22;4872;48.316;10.650;2024-02-26T13:55:36;11.50;76.30
9668;DHT22;4872;48.316;10.650;2024-02-26T13:58:04;11.30;76.70
9668;DHT22;4872;48.316;10.650;2024-02-26T14:00:31;11.20;77.30
9668;DHT22;4872;48.316;10.650;2024-02-26T14:02:59;11.10;77.70
9668;DHT22;4872;48.316;10.650;2024-02-26T14:05:26;11.10;78.10
9668;DHT22;4872;48.316;10.650;2024-02-26T14:07:54;11.20;77.90
9668;DHT22;4872;48.316;10.650;2024-02-26T14:10:21;11.10;78.30
9668;DHT22;4872;48.316;10.650;2024-02-26T14:12:48;11.10;78.70
9668;DHT22;4872;48.316;10.650;2024-02-26T14:15:15;11.20;79.30
9668;DHT22;4872;48.316;10.650;2024-02-26T14:17:42;11.00;80.00
9668;DHT22;4872;48.316;10.650;2024-02-26T14:20:10;10.90;79.90
9668;DHT22;4872;48.316;10.650;2024-02-26T14:22:37;11.00;80.10
9668;DHT22;4872;48.316;10.650;2024-02-26T14:25:07;11.10;79.80
9668;DHT22;4872;48.316;10.650;2024-02-26T14:27:36;11.00;79.90
9668;DHT22;4872;48.316;10.650;2024-02-26T14:30:04;11.00;80.00
9668;DHT22;4872;48.316;10.650;2024-02-26T14:32:31;10.90;80.20
9668;DHT22;4872;48.316;10.650;2024-02-26T14:35:00;10.80;80.60
9668;DHT22;4872;48.316;10.650;2024-02-26T14:37:28;10.80;80.80
9668;DHT22;4872;48.316;10.650;2024-02-26T14:39:55;10.80;81.00
9668;DHT22;4872;48.316;10.650;2024-02-26T14:42:23;10.80;81.50
9668;DHT22;4872;48.316;10.650;2024-02-26T14:44:50;10.80;81.90
9668;DHT22;4872;48.316;10.650;2024-02-26T14:47:17;10.80;82.60
9668;DHT22;4872;48.316;10.650;2024-02-26T14:49:43;10.70;82.80
9668;DHT22;4872;48.316;10.650;2024-02-26T14:52:13;10.70;83.30
9668;DHT22;4872;48.316;10.650;2024-02-26T14:54:40;10.70;83.30
9668;DHT22;4872;48.316;10.650;2024-02-26T14:57:06;10.70;83.60
9668;DHT22;4872;48.316;10.650;2024-02-26T14:59:35;10.60;84.00
9668;DHT22;4872;48.316;10.650;2024-02-26T15:02:03;10.70;84.70
9668;DHT22;4872;48.316;10.650;2024-02-26T15:04:30;10.60;85.10
9668;DHT22;4872;48.316;10.650;2024-02-26T15:06:56;10.60;84.60
9668;DHT22;4872;48.316;10.650;2024-02-26T15:09:23;10.60;84.60
9668;DHT22;4872;48.316;10.650;2024-02-26T15:11:50;10.50;84.50
9668;DHT22;4872;48.316;10.650;2024-02-26T15:14:17;10.30;84.60
9668;DHT22;4872;48.316;10.650;2024-02-26T15:16:46;10.50;85.20
9668;DHT22;4872;48.316;10.650;2024-02-26T15:19:13;10.50;85.60
9668;DHT22;4872;48.316;10.650;2024-02-26T15:21:43;10.40;85.80
9668;DHT22;4872;48.316;10.650;2024-02-26T15:24:10;10.30;85.80
9668;DHT22;4872;48.316;10.650;2024-02-26T15:26:38;10.30;86.50
9668;DHT22;4872;48.316;10.650;2024-02-26T15:29:05;10.20;87.00
9668;DHT22;4872;48.316;10.650;2024-02-26T15:31:34;10.20;87.70
9668;DHT22;4872;48.316;10.650;2024-02-26T15:34:02;10.10;88.10
9668;DHT22;4872;48.316;10.650;2024-02-26T15:36:29;10.10;88.60
9668;DHT22;4872;48.316;10.650;2024-02-26T15:38:56;10.00;88.80
9668;DHT22;4872;48.316;10.650;2024-02-26T15:41:23;9.90;90.20
9668;DHT22;4872;48.316;10.650;2024-02-26T15:43:50;10.00;90.00
9668;DHT22;4872;48.316;10.650;2024-02-26T15:46:17;9.80;90.30
9668;DHT22;4872;48.316;10.650;2024-02-26T15:48:44;9.70;90.40
9668;DHT22;4872;48.316;10.650;2024-02-26T15:51:23;9.70;90.60
9668;DHT22;4872;48.316;10.650;2024-02-26T15:53:50;9.80;90.90
9668;DHT22;4872;48.316;10.650;2024-02-26T15:56:18;9.60;90.90
9668;DHT22;4872;48.316;10.650;2024-02-26T15:58:49;9.60;91.10
9668;DHT22;4872;48.316;10.650;2024-02-26T16:01:15;9.50;91.30
9668;DHT22;4872;48.316;10.650;2024-02-26T16:03:42;9.50;91.40
9668;DHT22;4872;48.316;10.650;2024-02-26T16:06:14;9.50;91.30
9668;DHT22;4872;48.316;10.650;2024-02-26T16:08:45;9.40;91.50
9668;DHT22;4872;48.316;10.650;2024-02-26T16:11:12;9.40;91.70
9668;DHT22;4872;48.316;10.650;2024-02-26T16:13:39;9.40;91.90
9668;DHT22;4872;48.316;10.650;2024-02-26T16:16:10;9.40;92.00
9668;DHT22;4872;48.316;10.650;2024-02-26T16:18:40;9.30;92.10
9668;DHT22;4872;48.316;10.650;2024-02-26T16:21:08;9.30;92.20
9668;DHT22;4872;48.316;10.650;2024-02-26T16:23:35;9.30;92.40
9668;DHT22;4872;48.316;10.650;2024-02-26T16:26:03;9.40;92.70
9668;DHT22;4872;48.316;10.650;2024-02-26T16:28:33;9.30;92.60
9668;DHT22;4872;48.316;10.650;2024-02-26T16:31:00;9.20;92.60
9668;DHT22;4872;48.316;10.650;2024-02-26T16:33:27;9.20;92.70
9668;DHT22;4872;48.316;10.650;2024-02-26T16:35:54;9.20;92.70
9668;DHT22;4872;48.316;10.650;2024-02-26T16:38:21;9.30;92.90
9668;DHT22;4872;48.316;10.650;2024-02-26T16:40:48;9.20;92.90
9668;DHT22;4872;48.316;10.650;2024-02-26T16:43:16;9.20;93.20
9668;DHT22;4872;48.316;10.650;2024-02-26T16:45:43;9.20;93.10
9668;DHT22;4872;48.316;10.650;2024-02-26T16:48:10;9.20;93.10
9668;DHT22;4872;48.316;10.650;2024-02-26T16:50:37;9.10;93.30
9668;DHT22;4872;48.316;10.650;2024-02-26T16:53:04;9.10;93.40
9668;DHT22;4872;48.316;10.650;2024-02-26T16:55:31;9.30;93.60
9668;DHT22;4872;48.316;10.650;2024-02-26T16:57:57;9.10;93.60
9668;DHT22;4872;48.316;10.650;2024-02-26T17:00:26;9.10;93.40
9668;DHT22;4872;48.316;10.650;2024-02-26T17:02:52;9.20;93.30
9668;DHT22;4872;48.316;10.650;2024-02-26T17:05:21;9.10;93.40
9668;DHT22;4872;48.316;10.650;2024-02-26T17:07:48;9.10;93.40
9668;DHT22;4872;48.316;10.650;2024-02-26T17:10:15;9.10;93.50
9668;DHT22;4872;48.316;10.650;2024-02-26T17:12:42;9.10;93.60
9668;DHT22;4872;48.316;10.650;2024-02-26T17:15:10;9.10;93.60
9668;DHT22;4872;48.316;10.650;2024-02-26T17:17:38;9.10;93.70
9668;DHT22;4872;48.316;10.650;2024-02-26T17:20:06;9.10;93.80
9668;DHT22;4872;48.316;10.650;2024-02-26T17:22:34;9.10;93.80
9668;DHT22;4872;48.316;10.650;2024-02-26T17:25:01;9.00;93.70
9668;DHT22;4872;48.316;10.650;2024-02-26T17:27:28;9.10;93.80
9668;DHT22;4872;48.316;10.650;2024-02-26T17:29:54;9.10;94.00
9668;DHT22;4872;48.316;10.650;2024-02-26T17:32:21;9.00;94.00
9668;DHT22;4872;48.316;10.650;2024-02-26T17:34:49;9.00;94.10
9668;DHT22;4872;48.316;10.650;2024-02-26T17:37:16;8.90;94.20
9668;DHT22;4872;48.316;10.650;2024-02-26T17:39:43;9.00;94.40
9668;DHT22;4872;48.316;10.650;2024-02-26T17:42:10;9.00;94.50
9668;DHT22;4872;48.316;10.650;2024-02-26T17:44:37;8.90;94.50
9668;DHT22;4872;48.316;10.650;2024-02-26T17:47:04;9.00;94.70
9668;DHT22;4872;48.316;10.650;2024-02-26T17:49:31;9.00;94.80
9668;DHT22;4872;48.316;10.650;2024-02-26T17:52:00;9.00;94.90
9668;DHT22;4872;48.316;10.650;2024-02-26T17:54:27;8.90;95.20
9668;DHT22;4872;48.316;10.650;2024-02-26T17:56:54;8.90;95.50
9668;DHT22;4872;48.316;10.650;2024-02-26T17:59:22;9.00;95.70
9668;DHT22;4872;48.316;10.650;2024-02-26T18:01:49;8.90;95.60
9668;DHT22;4872;48.316;10.650;2024-02-26T18:04:16;8.90;95.70
9668;DHT22;4872;48.316;10.650;2024-02-26T18:06:43;8.90;95.60
9668;DHT22;4872;48.316;10.650;2024-02-26T18:09:12;8.80;95.70
9668;DHT22;4872;48.316;10.650;2024-02-26T18:11:39;8.80;95.80
9668;DHT22;4872;48.316;10.650;2024-02-26T18:14:06;8.80;95.90
9668;DHT22;4872;48.316;10.650;2024-02-26T18:16:33;8.80;95.90
9668;DHT22;4872;48.316;10.650;2024-02-26T18:19:00;8.70;96.10
9668;DHT22;4872;48.316;10.650;2024-02-26T18:21:26;8.80;96.30
9668;DHT22;4872;48.316;10.650;2024-02-26T18:23:53;8.70;96.20
9668;DHT22;4872;48.316;10.650;2024-02-26T18:26:21;8.80;96.40
9668;DHT22;4872;48.316;10.650;2024-02-26T18:28:49;8.70;96.40
9668;DHT22;4872;48.316;10.650;2024-02-26T18:31:17;8.50;96.50
9668;DHT22;4872;48.316;10.650;2024-02-26T18:33:44;8.60;96.70
9668;DHT22;4872;48.316;10.650;2024-02-26T18:36:11;8.60;96.80
9668;DHT22;4872;48.316;10.650;2024-02-26T18:38:39;8.60;96.60
9668;DHT22;4872;48.316;10.650;2024-02-26T18:41:06;8.60;96.70
9668;DHT22;4872;48.316;10.650;2024-02-26T18:43:36;8.60;96.60
9668;DHT22;4872;48.316;10.650;2024-02-26T18:46:03;8.60;96.40
9668;DHT22;4872;48.316;10.650;2024-02-26T18:48:30;8.50;96.50
9668;DHT22;4872;48.316;10.650;2024-02-26T18:50:57;8.50;96.70
9668;DHT22;4872;48.316;10.650;2024-02-26T18:53:24;8.40;96.50
9668;DHT22;4872;48.316;10.650;2024-02-26T18:55:50;8.20;96.80
9668;DHT22;4872;48.316;10.650;2024-02-26T18:58:17;8.10;97.20
9668;DHT22;4872;48.316;10.650;2024-02-26T19:00:45;8.10;97.10
9668;DHT22;4872;48.316;10.650;2024-02-26T19:03:12;8.20;97.10
9668;DHT22;4872;48.316;10.650;2024-02-26T19:05:39;8.30;97.10
9668;DHT22;4872;48.316;10.650;2024-02-26T19:08:06;8.20;97.10
9668;DHT22;4872;48.316;10.650;2024-02-26T19:10:33;8.30;96.80
9668;DHT22;4872;48.316;10.650;2024-02-26T19:13:00;8.30;96.60
9668;DHT22;4872;48.316;10.650;2024-02-26T19:15:27;8.30;96.70
9668;DHT22;4872;48.316;10.650;2024-02-26T19:17:55;8.20;96.60
9668;DHT22;4872;48.316;10.650;2024-02-26T19:20:22;8.20;96.40
9668;DHT22;4872;48.316;10.650;2024-02-26T19:22:49;8.20;96.30
9668;DHT22;4872;48.316;10.650;2024-02-26T19:25:17;8.10;96.20
9668;DHT22;4872;48.316;10.650;2024-02-26T19:27:44;7.90;96.20
9668;DHT22;4872;48.316;10.650;2024-02-26T19:30:11;7.80;96.60
9668;DHT22;4872;48.316;10.650;2024-02-26T19:32:38;7.80;96.70
9668;DHT22;4872;48.316;10.650;2024-02-26T19:35:07;7.70;96.80
9668;DHT22;4872;48.316;10.650;2024-02-26T19:37:35;7.70;96.70
9668;DHT22;4872;48.316;10.650;2024-02-26T19:40:02;7.60;96.30
9668;DHT22;4872;48.316;10.650;2024-02-26T19:42:29;7.70;96.20
9668;DHT22;4872;48.316;10.650;2024-02-26T19:44:56;7.80;96.40
9668;DHT22;4872;48.316;10.650;2024-02-26T19:47:23;7.60;96.50
9668;DHT22;4872;48.316;10.650;2024-02-26T19:49:50;7.60;96.20
9668;DHT22;4872;48.316;10.650;2024-02-26T19:52:18;7.60;96.20
9668;DHT22;4872;48.316;10.650;2024-02-26T19:54:46;7.60;96.50
9668;DHT22;4872;48.316;10.650;2024-02-26T19:57:12;7.60;96.20
9668;DHT22;4872;48.316;10.650;2024-02-26T19:59:39;7.60;96.00
9668;DHT22;4872;48.316;10.650;2024-02-26T20:02:06;7.70;96.10
9668;DHT22;4872;48.316;10.650;2024-02-26T20:04:35;7.70;96.10
9668;DHT22;4872;48.316;10.650;2024-02-26T20:07:02;7.60;96.00
9668;DHT22;4872;48.316;10.650;2024-02-26T20:09:31;7.60;95.90
9668;DHT22;4872;48.316;10.650;2024-02-26T20:11:58;7.50;96.10
9668;DHT22;4872;48.316;10.650;2024-02-26T20:14:26;7.50;96.10
9668;DHT22;4872;48.316;10.650;2024-02-26T20:16:54;7.40;96.20
9668;DHT22;4872;48.316;10.650;2024-02-26T20:19:20;7.40;96.10
9668;DHT22;4872;48.316;10.650;2024-02-26T20:21:47;7.40;96.10
9668;DHT22;4872;48.316;10.650;2024-02-26T20:24:14;7.40;96.20
9668;DHT22;4872;48.316;10.650;2024-02-26T20:26:44;7.60;96.00
9668;DHT22;4872;48.316;10.650;2024-02-26T20:29:14;7.30;95.90
9668;DHT22;4872;48.316;10.650;2024-02-26T20:31:41;7.30;96.00
9668;DHT22;4872;48.316;10.650;2024-02-26T20:34:08;7.30;96.00
9668;DHT22;4872;48.316;10.650;2024-02-26T20:36:36;7.20;96.00
9668;DHT22;4872;48.316;10.650;2024-02-26T20:39:02;7.20;96.00
9668;DHT22;4872;48.316;10.650;2024-02-26T20:41:30;7.20;95.90
9668;DHT22;4872;48.316;10.650;2024-02-26T20:43:59;7.20;95.90
9668;DHT22;4872;48.316;10.650;2024-02-26T20:46:27;7.10;95.70
9668;DHT22;4872;48.316;10.650;2024-02-26T20:48:53;7.10;95.90
9668;DHT22;4872;48.316;10.650;2024-02-26T20:51:20;7.10;96.00
9668;DHT22;4872;48.316;10.650;2024-02-26T20:53:47;7.10;96.00
9668;DHT22;4872;48.316;10.650;2024-02-26T20:56:14;7.00;96.00
9668;DHT22;4872;48.316;10.650;2024-02-26T20:58:40;7.00;96.00
9668;DHT22;4872;48.316;10.650;2024-02-26T21:01:09;7.00;96.00
9668;DHT22;4872;48.316;10.650;2024-02-26T21:03:36;7.00;96.00
9668;DHT22;4872;48.316;10.650;2024-02-26T21:06:04;7.00;95.90